Time;durP1;ratioP1;P1;durP2;ratioP2;P2;SDS_P1;SDS_P2;PMS_P1;PMS_P2;Temp;Humidity;BMP_temperature;BMP_pressure;BME280_temperature;BME280_humidity;BME280_pressure;Samples;Min_cycle;Max_cycle;Signal;HPM_P1;HPM_P2
2024/03/03 00:00:35;;;;;;;1.17;0.40;;;;;;;;;;2088245;28;20114;-47
2024/03/03 00:01:36;;;;;;;0.40;0.20;;;;;;;;;;2087847;28;20032;-48
2024/03/03 00:02:38;;;;;;;0.63;0.30;;;;;;;;;;2086150;28;20016;-47
2024/03/03 00:03:39;;;;;;;0.50;0.20;;;;;;;;;;2080748;28;20025;-46
2024/03/03 00:04:40;;;;;;;0.22;0.17;;;;;;;;;;2084323;28;20102;-48
2024/03/03 00:05:42;;;;;;;0.10;0.10;;;;;;;;;;2081391;28;20100;-48
2024/03/03 00:06:43;;;;;;;0.47;0.28;;;;;;;;;;2089196;28;21126;-47
2024/03/03 00:07:44;;;;;;;1.70;0.20;;;;;;;;;;2089097;28;20025;-47
2024/03/03 00:08:46;;;;;;;0.47;0.22;;;;;;;;;;2089204;28;20498;-46
2024/03/03 00:09:47;;;;;;;0.35;0.10;;;;;;;;;;2089019;28;20036;-46
2024/03/03 00:10:50;;;;;;;0.98;0.30;;;;;;;;;;2088852;28;20075;-46
2024/03/03 00:11:51;;;;;;;0.28;0.10;;;;;;;;;;2088654;28;20025;-47
2024/03/03 00:12:52;;;;;;;0.45;0.20;;;;;;;;;;2084364;28;20143;-48
2024/03/03 00:13:53;;;;;;;0.63;0.30;;;;;;;;;;2082180;28;20579;-49
2024/03/03 00:14:54;;;;;;;0.20;0.10;;;;;;;;;;2088618;28;20021;-48
2024/03/03 00:15:56;;;;;;;1.00;0.40;;;;;;;;;;2089165;28;20021;-46
2024/03/03 00:16:57;;;;;;;0.40;0.20;;;;;;;;;;2089089;28;20021;-49
2024/03/03 00:17:58;;;;;;;0.28;0.15;;;;;;;;;;2093562;28;20086;-47
2024/03/03 00:19:00;;;;;;;0.95;0.10;;;;;;;;;;2094321;28;20019;-48
2024/03/03 00:20:02;;;;;;;4.05;0.90;;;;;;;;;;2089384;28;20017;-49
2024/03/03 00:21:03;;;;;;;1.00;0.35;;;;;;;;;;2086461;28;20076;-47
2024/03/03 00:22:04;;;;;;;0.40;0.20;;;;;;;;;;2083378;28;20033;-48
2024/03/03 00:23:06;;;;;;;1.52;0.38;;;;;;;;;;2088007;28;20841;-46
2024/03/03 00:24:07;;;;;;;1.95;0.30;;;;;;;;;;2088815;28;20099;-49
2024/03/03 00:25:08;;;;;;;0.88;0.20;;;;;;;;;;2089248;28;20025;-46
2024/03/03 00:26:10;;;;;;;0.45;0.15;;;;;;;;;;2089500;28;20017;-48
2024/03/03 00:27:12;;;;;;;0.93;0.32;;;;;;;;;;2089330;28;20086;-49
2024/03/03 00:28:13;;;;;;;0.60;0.20;;;;;;;;;;2081082;28;20013;-46
2024/03/03 00:29:14;;;;;;;0.80;0.28;;;;;;;;;;2085644;28;20404;-48
2024/03/03 00:30:16;;;;;;;0.50;0.20;;;;;;;;;;2083914;28;20367;-47
2024/03/03 00:31:18;;;;;;;0.82;0.40;;;;;;;;;;2096365;28;20033;-48
2024/03/03 00:32:19;;;;;;;1.48;0.68;;;;;;;;;;2090547;28;20021;-48
2024/03/03 00:33:21;;;;;;;0.98;0.30;;;;;;;;;;2088017;28;20029;-47
2024/03/03 00:34:22;;;;;;;0.93;0.30;;;;;;;;;;2086891;28;20082;-48
2024/03/03 00:35:23;;;;;;;1.15;0.30;;;;;;;;;;2087958;28;20055;-47
2024/03/03 00:36:25;;;;;;;0.65;0.30;;;;;;;;;;2088934;28;20063;-48
2024/03/03 00:37:26;;;;;;;1.13;0.45;;;;;;;;;;2088310;28;20033;-47
2024/03/03 00:38:27;;;;;;;0.80;0.30;;;;;;;;;;2088062;28;20025;-47
2024/03/03 00:39:28;;;;;;;0.75;0.10;;;;;;;;;;2088782;28;20065;-48
2024/03/03 00:40:32;;;;;;;0.30;0.10;;;;;;;;;;2089904;28;20024;-46
2024/03/03 00:41:33;;;;;;;0.70;0.25;;;;;;;;;;2090301;28;20028;-48
2024/03/03 00:42:35;;;;;;;0.85;0.22;;;;;;;;;;2090143;28;20016;-47
2024/03/03 00:43:36;;;;;;;1.33;0.20;;;;;;;;;;2090197;28;20033;-47
2024/03/03 00:44:37;;;;;;;0.28;0.20;;;;;;;;;;2089711;28;20112;-47
2024/03/03 00:45:38;;;;;;;0.47;0.05;;;;;;;;;;2089563;28;20029;-47
2024/03/03 00:46:40;;;;;;;1.05;0.30;;;;;;;;;;2093129;28;20027;-46
2024/03/03 00:47:42;;;;;;;0.68;0.20;;;;;;;;;;2094085;28;20066;-47
2024/03/03 00:48:43;;;;;;;0.35;0.15;;;;;;;;;;2090014;28;20024;-49
2024/03/03 00:49:44;;;;;;;0.95;0.20;;;;;;;;;;2090408;28;20013;-48
2024/03/03 00:50:46;;;;;;;0.63;0.30;;;;;;;;;;2090521;28;20087;-48
2024/03/03 00:51:47;;;;;;;1.60;0.30;;;;;;;;;;2089573;28;20027;-49
2024/03/03 00:52:54;;;;;;;0.65;0.30;;;;;;;;;;2089333;28;20430;-49
2024/03/03 00:53:55;;;;;;;0.65;0.20;;;;;;;;;;2084690;28;20155;-48
2024/03/03 00:54:57;;;;;;;0.60;0.22;;;;;;;;;;2088858;28;20012;-48
2024/03/03 00:55:58;;;;;;;0.50;0.20;;;;;;;;;;2085468;28;20021;-47
2024/03/03 00:56:59;;;;;;;0.60;0.28;;;;;;;;;;2089020;28;20028;-48
2024/03/03 00:58:01;;;;;;;0.38;0.20;;;;;;;;;;2089914;28;20029;-48
2024/03/03 00:59:03;;;;;;;0.47;0.20;;;;;;;;;;2083812;28;20025;-48
2024/03/03 01:00:05;;;;;;;0.73;0.22;;;;;;;;;;2090192;28;20033;-47
2024/03/03 01:01:06;;;;;;;1.17;0.20;;;;;;;;;;2086337;28;20021;-48
2024/03/03 01:02:07;;;;;;;0.50;0.20;;;;;;;;;;2079884;28;20021;-49
2024/03/03 01:03:09;;;;;;;0.85;0.20;;;;;;;;;;2089228;28;20029;-47
2024/03/03 01:04:10;;;;;;;0.40;0.28;;;;;;;;;;2082827;28;20020;-49
2024/03/03 01:05:11;;;;;;;0.77;0.30;;;;;;;;;;2089824;28;20017;-48
2024/03/03 01:06:13;;;;;;;0.57;0.10;;;;;;;;;;2081160;28;20029;-48
2024/03/03 01:07:15;;;;;;;0.73;0.30;;;;;;;;;;2081481;28;20024;-48
2024/03/03 01:08:16;;;;;;;0.93;0.30;;;;;;;;;;2089900;28;20035;-48
2024/03/03 01:09:18;;;;;;;1.73;0.40;;;;;;;;;;2089933;28;20118;-49
2024/03/03 01:10:20;;;;;;;0.60;0.40;;;;;;;;;;2090053;28;20044;-47
2024/03/03 01:11:22;;;;;;;1.10;0.40;;;;;;;;;;2083908;28;20021;-48
2024/03/03 01:12:23;;;;;;;0.65;0.30;;;;;;;;;;2084605;28;20017;-49
2024/03/03 01:13:24;;;;;;;0.70;0.20;;;;;;;;;;2089206;28;20036;-48
2024/03/03 01:14:26;;;;;;;0.40;0.20;;;;;;;;;;2089537;28;20074;-48
2024/03/03 01:15:27;;;;;;;0.90;0.25;;;;;;;;;;2084073;28;20035;-48
2024/03/03 01:16:28;;;;;;;1.38;0.30;;;;;;;;;;2089270;28;20142;-49
2024/03/03 01:17:30;;;;;;;0.40;0.20;;;;;;;;;;2089309;28;20029;-47
2024/03/03 01:18:31;;;;;;;0.30;0.20;;;;;;;;;;2089459;28;20028;-48
2024/03/03 01:19:32;;;;;;;0.30;0.20;;;;;;;;;;2090425;28;20029;-48
2024/03/03 01:20:33;;;;;;;0.77;0.20;;;;;;;;;;2090191;28;20076;-48
2024/03/03 01:21:39;;;;;;;0.50;0.20;;;;;;;;;;2090319;28;20020;-49
2024/03/03 01:22:40;;;;;;;0.82;0.20;;;;;;;;;;2090201;28;20045;-48
2024/03/03 01:23:42;;;;;;;0.35;0.20;;;;;;;;;;2090156;28;20055;-48
2024/03/03 01:24:43;;;;;;;2.13;0.30;;;;;;;;;;2092158;28;20546;-49
2024/03/03 01:25:46;;;;;;;0.22;0.15;;;;;;;;;;2088519;28;20017;-49
2024/03/03 01:26:47;;;;;;;0.70;0.20;;;;;;;;;;2083862;28;20083;-49
2024/03/03 01:27:48;;;;;;;1.35;0.20;;;;;;;;;;2081219;28;20045;-49
2024/03/03 01:28:49;;;;;;;1.33;0.20;;;;;;;;;;2089725;28;20050;-47
2024/03/03 01:29:51;;;;;;;0.20;0.10;;;;;;;;;;2089758;28;20029;-48
2024/03/03 01:30:52;;;;;;;1.05;0.10;;;;;;;;;;2089271;28;20016;-47
2024/03/03 01:31:53;;;;;;;0.65;0.20;;;;;;;;;;2089819;28;20021;-48
2024/03/03 01:32:54;;;;;;;1.70;0.10;;;;;;;;;;2089278;28;20379;-48
2024/03/03 01:33:56;;;;;;;0.98;0.15;;;;;;;;;;2089768;28;20464;-48
2024/03/03 01:34:57;;;;;;;0.28;0.10;;;;;;;;;;2089061;28;20033;-49
2024/03/03 01:36:00;;;;;;;0.85;0.20;;;;;;;;;;2090322;28;20025;-48
2024/03/03 01:37:01;;;;;;;0.50;0.25;;;;;;;;;;2090122;28;20499;-50
2024/03/03 01:38:02;;;;;;;0.43;0.20;;;;;;;;;;2090140;28;20049;-49
2024/03/03 01:39:03;;;;;;;0.20;0.00;;;;;;;;;;2089872;28;20021;-49
2024/03/03 01:40:05;;;;;;;0.30;0.10;;;;;;;;;;2090054;28;20537;-49
2024/03/03 01:41:06;;;;;;;0.20;0.10;;;;;;;;;;2090483;28;20009;-49
2024/03/03 01:42:08;;;;;;;0.35;0.10;;;;;;;;;;2090163;28;20119;-49
2024/03/03 01:43:11;;;;;;;0.47;0.17;;;;;;;;;;2090047;28;20059;-49
2024/03/03 01:44:12;;;;;;;0.20;0.10;;;;;;;;;;2090374;28;20021;-48
2024/03/03 01:45:24;;;;;;;0.30;0.08;;;;;;;;;;2087813;28;20013;-50
2024/03/03 01:46:25;;;;;;;1.02;0.10;;;;;;;;;;2081612;28;20032;-48
2024/03/03 01:47:27;;;;;;;0.13;0.10;;;;;;;;;;2089322;28;20379;-47
2024/03/03 01:48:28;;;;;;;0.30;0.10;;;;;;;;;;2088645;28;20090;-48
2024/03/03 01:49:31;;;;;;;0.60;0.20;;;;;;;;;;2089817;28;20353;-48
2024/03/03 01:50:33;;;;;;;1.27;0.20;;;;;;;;;;2089313;28;20036;-48
2024/03/03 01:51:35;;;;;;;0.20;0.10;;;;;;;;;;2088014;28;20052;-47
2024/03/03 01:52:37;;;;;;;0.30;0.10;;;;;;;;;;2089820;28;20029;-49
2024/03/03 01:53:40;;;;;;;0.20;0.00;;;;;;;;;;2089979;28;20031;-48
2024/03/03 01:54:41;;;;;;;0.93;0.20;;;;;;;;;;2088787;28;20096;-49
2024/03/03 01:55:43;;;;;;;0.03;0.00;;;;;;;;;;2089493;28;20028;-48
2024/03/03 01:56:46;;;;;;;0.60;0.20;;;;;;;;;;2089722;28;20407;-49
2024/03/03 01:57:48;;;;;;;0.10;0.00;;;;;;;;;;2090080;28;20069;-48
2024/03/03 01:58:49;;;;;;;0.22;0.10;;;;;;;;;;2087958;28;20403;-48
2024/03/03 01:59:51;;;;;;;0.47;0.15;;;;;;;;;;2089830;28;20059;-48
2024/03/03 02:00:53;;;;;;;0.55;0.10;;;;;;;;;;2089118;28;20396;-48
2024/03/03 02:01:56;;;;;;;0.30;0.10;;;;;;;;;;2089937;28;20087;-47
2024/03/03 02:02:57;;;;;;;0.30;0.00;;;;;;;;;;2089521;28;20024;-48
2024/03/03 02:03:58;;;;;;;0.57;0.17;;;;;;;;;;2089300;28;20036;-48
2024/03/03 02:05:00;;;;;;;0.57;0.10;;;;;;;;;;2089936;28;20032;-48
2024/03/03 02:06:02;;;;;;;0.28;0.10;;;;;;;;;;2089164;28;20301;-48
2024/03/03 02:07:03;;;;;;;0.95;0.10;;;;;;;;;;2088995;28;20029;-48
2024/03/03 02:08:05;;;;;;;0.55;0.17;;;;;;;;;;2090013;28;20047;-48
2024/03/03 02:09:07;;;;;;;0.50;0.20;;;;;;;;;;2089913;28;20090;-48
2024/03/03 02:10:09;;;;;;;0.95;0.13;;;;;;;;;;2087319;28;20014;-48
2024/03/03 02:11:10;;;;;;;1.50;0.10;;;;;;;;;;2090050;28;20052;-48
2024/03/03 02:12:13;;;;;;;1.48;0.10;;;;;;;;;;2089094;28;20025;-48
2024/03/03 02:13:14;;;;;;;0.32;0.10;;;;;;;;;;2089421;28;20036;-48
2024/03/03 02:14:15;;;;;;;1.02;0.10;;;;;;;;;;2081145;28;20018;-48
2024/03/03 02:15:17;;;;;;;0.60;0.20;;;;;;;;;;2088857;28;20032;-48
2024/03/03 02:16:18;;;;;;;0.10;0.10;;;;;;;;;;2089876;28;20017;-48
2024/03/03 02:17:19;;;;;;;1.15;0.30;;;;;;;;;;2089433;28;20436;-48
2024/03/03 02:18:20;;;;;;;0.05;0.05;;;;;;;;;;2090919;28;20487;-47
2024/03/03 02:19:23;;;;;;;0.80;0.20;;;;;;;;;;2090673;28;20044;-48
2024/03/03 02:20:24;;;;;;;0.20;0.03;;;;;;;;;;2091073;28;20529;-47
2024/03/03 02:21:25;;;;;;;0.20;0.10;;;;;;;;;;2091197;28;20040;-47
2024/03/03 02:22:27;;;;;;;0.40;0.20;;;;;;;;;;2091109;28;20110;-53
2024/03/03 02:23:28;;;;;;;0.28;0.10;;;;;;;;;;2092591;28;20390;-51
2024/03/03 02:24:29;;;;;;;1.27;0.10;;;;;;;;;;2091353;28;20040;-52
2024/03/03 02:25:30;;;;;;;0.20;0.00;;;;;;;;;;2091030;28;20009;-52
2024/03/03 02:26:32;;;;;;;0.10;0.10;;;;;;;;;;2090216;28;20013;-50
2024/03/03 02:27:34;;;;;;;1.40;0.00;;;;;;;;;;2089989;28;20029;-54
2024/03/03 02:28:35;;;;;;;0.40;0.10;;;;;;;;;;2089820;28;20021;-52
2024/03/03 02:29:36;;;;;;;0.30;0.13;;;;;;;;;;2089799;28;20025;-52
2024/03/03 02:30:38;;;;;;;1.13;0.17;;;;;;;;;;2089676;28;20025;-52
2024/03/03 02:31:39;;;;;;;0.52;0.20;;;;;;;;;;2089667;28;20033;-52
2024/03/03 02:32:40;;;;;;;0.22;0.08;;;;;;;;;;2089797;28;20044;-52
2024/03/03 02:33:42;;;;;;;0.38;0.10;;;;;;;;;;2095281;28;20008;-52
2024/03/03 02:34:43;;;;;;;1.30;0.13;;;;;;;;;;2081458;28;20033;-52
2024/03/03 02:35:45;;;;;;;0.08;0.05;;;;;;;;;;2080554;28;20021;-47
2024/03/03 02:36:46;;;;;;;0.10;0.10;;;;;;;;;;2089438;28;20116;-53
2024/03/03 02:37:49;;;;;;;0.17;0.05;;;;;;;;;;2089386;28;20490;-54
2024/03/03 02:38:50;;;;;;;0.28;0.10;;;;;;;;;;2089266;28;20087;-53
2024/03/03 02:39:52;;;;;;;0.10;0.00;;;;;;;;;;2089372;28;20021;-53
2024/03/03 02:40:53;;;;;;;0.00;0.00;;;;;;;;;;2088968;28;20461;-54
2024/03/03 02:41:54;;;;;;;0.98;0.20;;;;;;;;;;2089060;28;20028;-52
2024/03/03 02:42:56;;;;;;;0.28;0.10;;;;;;;;;;2089061;28;20036;-51
2024/03/03 02:43:57;;;;;;;0.15;0.00;;;;;;;;;;2087714;28;20016;-52
2024/03/03 02:44:58;;;;;;;0.13;0.10;;;;;;;;;;2088728;28;20017;-49
2024/03/03 02:45:59;;;;;;;1.48;0.10;;;;;;;;;;2089381;28;20021;-47
2024/03/03 02:47:01;;;;;;;0.45;0.00;;;;;;;;;;2089600;28;20052;-48
2024/03/03 02:48:02;;;;;;;0.20;0.10;;;;;;;;;;2089401;28;20021;-47
2024/03/03 02:49:03;;;;;;;0.15;0.10;;;;;;;;;;2089066;28;20031;-48
2024/03/03 02:50:05;;;;;;;0.25;0.08;;;;;;;;;;2089556;28;20471;-48
2024/03/03 02:51:06;;;;;;;0.80;0.10;;;;;;;;;;2089218;28;20743;-47
2024/03/03 02:52:07;;;;;;;0.47;0.10;;;;;;;;;;2089437;28;20021;-47
2024/03/03 02:53:08;;;;;;;0.28;0.08;;;;;;;;;;2096809;28;20025;-48
2024/03/03 02:54:10;;;;;;;0.30;0.10;;;;;;;;;;2088012;28;20032;-51
2024/03/03 02:55:12;;;;;;;0.95;0.20;;;;;;;;;;2080751;28;20032;-51
2024/03/03 02:56:14;;;;;;;0.25;0.10;;;;;;;;;;2087306;28;20656;-52
2024/03/03 02:57:15;;;;;;;0.77;0.08;;;;;;;;;;2088260;28;20488;-52
2024/03/03 02:58:16;;;;;;;0.57;0.10;;;;;;;;;;2085142;28;20017;-50
2024/03/03 02:59:17;;;;;;;0.10;0.00;;;;;;;;;;2086722;28;20040;-48
2024/03/03 03:00:18;;;;;;;0.47;0.00;;;;;;;;;;2086793;28;20426;-49
2024/03/03 03:01:20;;;;;;;0.10;0.10;;;;;;;;;;2089062;28;20079;-49
2024/03/03 03:02:21;;;;;;;0.47;0.13;;;;;;;;;;2088791;28;20024;-49
2024/03/03 03:03:22;;;;;;;0.30;0.10;;;;;;;;;;2089098;28;20108;-50
2024/03/03 03:04:23;;;;;;;0.43;0.30;;;;;;;;;;2089432;28;20021;-49
2024/03/03 03:05:25;;;;;;;0.73;0.10;;;;;;;;;;2088567;28;20479;-52
2024/03/03 03:06:26;;;;;;;1.05;0.20;;;;;;;;;;2088974;28;20022;-50
2024/03/03 03:07:27;;;;;;;0.10;0.10;;;;;;;;;;2088799;28;20068;-49
2024/03/03 03:08:28;;;;;;;0.10;0.03;;;;;;;;;;2086507;28;20028;-48
2024/03/03 03:09:31;;;;;;;0.13;0.00;;;;;;;;;;2089483;28;20033;-46
2024/03/03 03:10:32;;;;;;;1.50;0.17;;;;;;;;;;2088546;28;20436;-46
2024/03/03 03:11:36;;;;;;;0.10;0.00;;;;;;;;;;2089514;28;20029;-46
2024/03/03 03:12:37;;;;;;;0.13;0.00;;;;;;;;;;2089477;28;20044;-47
2024/03/03 03:13:38;;;;;;;0.80;0.10;;;;;;;;;;2089262;28;20029;-46
2024/03/03 03:14:40;;;;;;;0.17;0.10;;;;;;;;;;2089513;28;20023;-47
2024/03/03 03:15:41;;;;;;;0.20;0.10;;;;;;;;;;2089172;28;20511;-46
2024/03/03 03:16:43;;;;;;;0.55;0.00;;;;;;;;;;2089377;28;20012;-48
2024/03/03 03:17:44;;;;;;;0.35;0.15;;;;;;;;;;2089052;28;20017;-46
2024/03/03 03:18:45;;;;;;;0.20;0.05;;;;;;;;;;2089104;28;20064;-47
2024/03/03 03:19:46;;;;;;;0.30;0.10;;;;;;;;;;2089050;28;20024;-46
2024/03/03 03:20:48;;;;;;;0.30;0.10;;;;;;;;;;2089017;28;20025;-47
2024/03/03 03:21:49;;;;;;;0.57;0.10;;;;;;;;;;2089112;28;20025;-46
2024/03/03 03:22:50;;;;;;;0.00;0.00;;;;;;;;;;2089140;28;20013;-46
2024/03/03 03:23:53;;;;;;;0.43;0.10;;;;;;;;;;2088395;28;20051;-46
2024/03/03 03:24:54;;;;;;;0.10;0.10;;;;;;;;;;2088724;28;20029;-47
2024/03/03 03:25:55;;;;;;;0.52;0.15;;;;;;;;;;2089226;28;20033;-49
2024/03/03 03:26:57;;;;;;;0.30;0.10;;;;;;;;;;2088896;28;20442;-50
2024/03/03 03:27:58;;;;;;;0.10;0.00;;;;;;;;;;2089258;28;20139;-50
2024/03/03 03:28:59;;;;;;;0.32;0.10;;;;;;;;;;2089289;28;20029;-49
2024/03/03 03:30:00;;;;;;;0.47;0.13;;;;;;;;;;2089134;28;20488;-50
2024/03/03 03:31:02;;;;;;;0.15;0.03;;;;;;;;;;2082685;28;20075;-52
2024/03/03 03:32:04;;;;;;;0.25;0.20;;;;;;;;;;2088263;28;20115;-49
2024/03/03 03:33:05;;;;;;;0.40;0.10;;;;;;;;;;2088075;28;20040;-49
2024/03/03 03:34:06;;;;;;;0.77;0.00;;;;;;;;;;2088097;28;20017;-50
2024/03/03 03:35:09;;;;;;;0.20;0.10;;;;;;;;;;2087168;28;20040;-51
2024/03/03 03:36:11;;;;;;;0.63;0.10;;;;;;;;;;2088501;28;20092;-51
2024/03/03 03:37:15;;;;;;;0.20;0.10;;;;;;;;;;2089145;28;20033;-51
2024/03/03 03:38:18;;;;;;;0.30;0.10;;;;;;;;;;2083587;28;20055;-51
2024/03/03 03:39:19;;;;;;;0.20;0.17;;;;;;;;;;2080855;28;20080;-51
2024/03/03 03:40:21;;;;;;;0.28;0.08;;;;;;;;;;2089185;28;20392;-48
2024/03/03 03:41:23;;;;;;;0.10;0.10;;;;;;;;;;2088859;28;20096;-51
2024/03/03 03:42:24;;;;;;;0.28;0.20;;;;;;;;;;2089203;28;20025;-47
2024/03/03 03:43:25;;;;;;;0.25;0.10;;;;;;;;;;2080993;28;20400;-47
2024/03/03 03:44:27;;;;;;;0.30;0.10;;;;;;;;;;2082541;28;20037;-47
2024/03/03 03:45:28;;;;;;;0.20;0.10;;;;;;;;;;2089246;28;20391;-47
2024/03/03 03:46:29;;;;;;;0.70;0.22;;;;;;;;;;2088595;28;20031;-47
2024/03/03 03:47:31;;;;;;;0.30;0.00;;;;;;;;;;2088221;28;20583;-47
2024/03/03 03:48:32;;;;;;;0.50;0.20;;;;;;;;;;2088515;28;20025;-47
2024/03/03 03:49:33;;;;;;;0.40;0.13;;;;;;;;;;2087839;28;20065;-47
2024/03/03 03:50:35;;;;;;;0.20;0.10;;;;;;;;;;2088273;28;20021;-47
2024/03/03 03:51:36;;;;;;;0.82;0.20;;;;;;;;;;2088225;28;20527;-47
2024/03/03 03:52:38;;;;;;;0.17;0.08;;;;;;;;;;2088848;28;20032;-47
2024/03/03 03:53:39;;;;;;;0.13;0.08;;;;;;;;;;2088373;28;20033;-46
2024/03/03 03:54:40;;;;;;;0.10;0.03;;;;;;;;;;2088107;28;20013;-48
2024/03/03 03:55:41;;;;;;;0.32;0.10;;;;;;;;;;2088843;28;20029;-49
2024/03/03 03:56:42;;;;;;;0.40;0.10;;;;;;;;;;2089060;28;20395;-48
2024/03/03 03:57:44;;;;;;;0.50;0.10;;;;;;;;;;2088108;28;20021;-48
2024/03/03 03:58:45;;;;;;;0.50;0.10;;;;;;;;;;2088175;28;20070;-48
2024/03/03 03:59:46;;;;;;;0.63;0.10;;;;;;;;;;2088920;28;20079;-48
2024/03/03 04:00:47;;;;;;;0.00;0.00;;;;;;;;;;2088134;28;20021;-48
2024/03/03 04:01:49;;;;;;;0.25;0.10;;;;;;;;;;2088290;28;20088;-48
2024/03/03 04:02:50;;;;;;;0.47;0.20;;;;;;;;;;2080445;28;20044;-48
2024/03/03 04:03:51;;;;;;;0.45;0.20;;;;;;;;;;2078886;28;20010;-48
2024/03/03 04:04:53;;;;;;;0.35;0.15;;;;;;;;;;2088361;28;20051;-49
2024/03/03 04:05:54;;;;;;;0.40;0.10;;;;;;;;;;2082950;28;20457;-49
2024/03/03 04:06:55;;;;;;;1.90;0.20;;;;;;;;;;2085996;28;20009;-48
2024/03/03 04:07:56;;;;;;;0.88;0.13;;;;;;;;;;2088998;28;20071;-48
2024/03/03 04:08:59;;;;;;;1.17;0.20;;;;;;;;;;2085137;28;20376;-49
2024/03/03 04:10:00;;;;;;;0.90;0.20;;;;;;;;;;2087642;28;20067;-47
2024/03/03 04:11:01;;;;;;;0.38;0.00;;;;;;;;;;2088814;28;20525;-47
2024/03/03 04:12:03;;;;;;;1.13;0.10;;;;;;;;;;2088396;28;20049;-47
2024/03/03 04:13:04;;;;;;;0.20;0.10;;;;;;;;;;2088372;28;20021;-49
2024/03/03 04:14:06;;;;;;;0.63;0.20;;;;;;;;;;2088570;28;20029;-48
2024/03/03 04:15:07;;;;;;;1.30;0.10;;;;;;;;;;2088522;28;20040;-47
2024/03/03 04:16:08;;;;;;;0.70;0.10;;;;;;;;;;2088369;28;20542;-47
2024/03/03 04:17:10;;;;;;;0.10;0.00;;;;;;;;;;2086962;28;20048;-47
2024/03/03 04:18:11;;;;;;;0.35;0.10;;;;;;;;;;2089274;28;20095;-48
2024/03/03 04:19:12;;;;;;;1.15;0.03;;;;;;;;;;2090010;28;20045;-47
2024/03/03 04:20:14;;;;;;;0.50;0.20;;;;;;;;;;2090300;28;20370;-50
2024/03/03 04:21:16;;;;;;;1.60;0.22;;;;;;;;;;2090572;28;20074;-50
2024/03/03 04:22:17;;;;;;;0.73;0.13;;;;;;;;;;2090334;28;20021;-51
2024/03/03 04:23:19;;;;;;;0.50;0.10;;;;;;;;;;2092515;28;20017;-51
2024/03/03 04:24:21;;;;;;;1.00;0.10;;;;;;;;;;2092018;28;20033;-50
2024/03/03 04:25:22;;;;;;;0.17;0.10;;;;;;;;;;2089795;28;20027;-50
2024/03/03 04:26:23;;;;;;;0.30;0.10;;;;;;;;;;2090228;28;20180;-49
2024/03/03 04:27:24;;;;;;;0.40;0.20;;;;;;;;;;2090282;28;20065;-50
2024/03/03 04:28:26;;;;;;;0.47;0.10;;;;;;;;;;2089649;28;20423;-49
2024/03/03 04:29:27;;;;;;;0.10;0.05;;;;;;;;;;2090706;28;20364;-49
2024/03/03 04:30:28;;;;;;;0.10;0.00;;;;;;;;;;2090435;28;20795;-49
2024/03/03 04:31:30;;;;;;;0.17;0.10;;;;;;;;;;2089502;28;20029;-50
2024/03/03 04:32:31;;;;;;;0.13;0.10;;;;;;;;;;2090780;28;20029;-49
2024/03/03 04:33:33;;;;;;;0.20;0.10;;;;;;;;;;2090341;28;20051;-49
2024/03/03 04:34:39;;;;;;;0.40;0.03;;;;;;;;;;2089586;28;20029;-49
2024/03/03 04:35:43;;;;;;;2.15;0.20;;;;;;;;;;2090549;28;20021;-49
2024/03/03 04:36:45;;;;;;;0.88;0.15;;;;;;;;;;2090269;28;20021;-47
2024/03/03 04:37:46;;;;;;;0.40;0.10;;;;;;;;;;2090511;28;20043;-47
2024/03/03 04:38:47;;;;;;;0.30;0.00;;;;;;;;;;2090369;28;20456;-47
2024/03/03 04:39:49;;;;;;;1.38;0.10;;;;;;;;;;2090144;28;20029;-47
2024/03/03 04:40:50;;;;;;;0.55;0.15;;;;;;;;;;2089727;28;20024;-48
2024/03/03 04:41:51;;;;;;;0.60;0.10;;;;;;;;;;2090257;28;20001;-48
2024/03/03 04:42:52;;;;;;;0.08;0.05;;;;;;;;;;2090264;28;20021;-47
2024/03/03 04:43:53;;;;;;;0.45;0.17;;;;;;;;;;2090514;28;20426;-47
2024/03/03 04:44:55;;;;;;;0.20;0.10;;;;;;;;;;2090059;28;20021;-47
2024/03/03 04:45:56;;;;;;;0.95;0.10;;;;;;;;;;2081085;28;20200;-48
2024/03/03 04:46:57;;;;;;;0.50;0.13;;;;;;;;;;2073340;28;20045;-47
2024/03/03 04:47:59;;;;;;;0.30;0.10;;;;;;;;;;2086688;28;20021;-49
2024/03/03 04:49:00;;;;;;;0.17;0.10;;;;;;;;;;2090048;28;20106;-47
2024/03/03 04:50:02;;;;;;;0.93;0.17;;;;;;;;;;2090166;28;20097;-47
2024/03/03 04:51:03;;;;;;;0.40;0.10;;;;;;;;;;2089987;28;20024;-47
2024/03/03 04:52:05;;;;;;;1.02;0.10;;;;;;;;;;2090425;28;20013;-47
2024/03/03 04:53:06;;;;;;;0.10;0.00;;;;;;;;;;2090252;28;20055;-48
2024/03/03 04:54:07;;;;;;;0.20;0.10;;;;;;;;;;2090181;28;20518;-48
2024/03/03 04:55:09;;;;;;;0.55;0.10;;;;;;;;;;2089653;28;20025;-47
2024/03/03 04:56:10;;;;;;;0.50;0.10;;;;;;;;;;2089315;28;20127;-48
2024/03/03 04:57:11;;;;;;;0.00;0.00;;;;;;;;;;2089722;28;20078;-47
2024/03/03 04:58:12;;;;;;;0.70;0.10;;;;;;;;;;2090339;28;20116;-47
2024/03/03 04:59:13;;;;;;;0.10;0.10;;;;;;;;;;2089718;28;20017;-48
2024/03/03 05:00:15;;;;;;;1.13;0.17;;;;;;;;;;2085167;28;20035;-47
2024/03/03 05:01:16;;;;;;;0.30;0.10;;;;;;;;;;2084144;28;20068;-47
2024/03/03 05:02:18;;;;;;;0.10;0.00;;;;;;;;;;2087598;28;20028;-47
2024/03/03 05:03:19;;;;;;;0.40;0.20;;;;;;;;;;2089424;28;20619;-47
2024/03/03 05:04:21;;;;;;;0.40;0.00;;;;;;;;;;2087186;28;20020;-46
2024/03/03 05:05:22;;;;;;;0.22;0.10;;;;;;;;;;2083641;28;20136;-48
2024/03/03 05:06:23;;;;;;;0.43;0.10;;;;;;;;;;2089874;28;20387;-48
2024/03/03 05:07:25;;;;;;;0.00;0.00;;;;;;;;;;2085043;28;20104;-47
2024/03/03 05:08:26;;;;;;;0.95;0.10;;;;;;;;;;2081682;28;20022;-52
2024/03/03 05:09:28;;;;;;;0.73;0.20;;;;;;;;;;2089519;28;20028;-52
2024/03/03 05:10:29;;;;;;;0.35;0.10;;;;;;;;;;2089705;28;20017;-54
2024/03/03 05:11:30;;;;;;;0.15;0.10;;;;;;;;;;2082118;28;20036;-51
2024/03/03 05:12:31;;;;;;;0.52;0.10;;;;;;;;;;2089407;28;20047;-52
2024/03/03 05:13:33;;;;;;;0.05;0.00;;;;;;;;;;2090159;28;20098;-52
2024/03/03 05:14:34;;;;;;;0.15;0.05;;;;;;;;;;2090209;28;20017;-53
2024/03/03 05:15:36;;;;;;;1.15;0.30;;;;;;;;;;2091957;28;20443;-51
2024/03/03 05:16:37;;;;;;;0.30;0.10;;;;;;;;;;2097151;28;20039;-52
2024/03/03 05:17:38;;;;;;;0.75;0.15;;;;;;;;;;2089555;28;20468;-54
2024/03/03 05:18:41;;;;;;;0.20;0.10;;;;;;;;;;2090158;28;20017;-51
2024/03/03 05:19:43;;;;;;;0.45;0.20;;;;;;;;;;2088986;28;20112;-51
2024/03/03 05:20:44;;;;;;;0.57;0.20;;;;;;;;;;2089459;28;20024;-49
2024/03/03 05:21:46;;;;;;;0.75;0.30;;;;;;;;;;2089465;28;20128;-52
2024/03/03 05:22:48;;;;;;;0.35;0.10;;;;;;;;;;2090323;28;20068;-51
2024/03/03 05:23:49;;;;;;;0.20;0.10;;;;;;;;;;2090100;28;20066;-49
2024/03/03 05:24:50;;;;;;;1.38;0.38;;;;;;;;;;2090015;28;20036;-51
2024/03/03 05:25:51;;;;;;;0.40;0.13;;;;;;;;;;2089904;28;20467;-50
2024/03/03 05:26:55;;;;;;;0.77;0.20;;;;;;;;;;2090003;28;20017;-51
2024/03/03 05:27:57;;;;;;;0.35;0.10;;;;;;;;;;2090192;28;20020;-51
2024/03/03 05:28:58;;;;;;;0.45;0.10;;;;;;;;;;2090143;28;20031;-51
2024/03/03 05:30:00;;;;;;;0.63;0.10;;;;;;;;;;2090079;28;20501;-51
2024/03/03 05:31:05;;;;;;;0.38;0.20;;;;;;;;;;2089895;28;20619;-51
2024/03/03 05:32:07;;;;;;;0.88;0.20;;;;;;;;;;2090106;28;20025;-52
2024/03/03 05:33:08;;;;;;;1.73;0.25;;;;;;;;;;2085572;28;20037;-50
2024/03/03 05:34:15;;;;;;;0.77;0.22;;;;;;;;;;2088943;28;20032;-51
2024/03/03 05:35:16;;;;;;;0.90;0.20;;;;;;;;;;2087849;28;20033;-52
2024/03/03 05:36:17;;;;;;;0.63;0.30;;;;;;;;;;2089056;28;20059;-52
2024/03/03 05:37:18;;;;;;;1.20;0.50;;;;;;;;;;2081140;28;20077;-52
2024/03/03 05:38:20;;;;;;;0.80;0.10;;;;;;;;;;2088298;28;20630;-48
2024/03/03 05:39:21;;;;;;;0.30;0.20;;;;;;;;;;2089736;28;20048;-48
2024/03/03 05:40:22;;;;;;;0.88;0.20;;;;;;;;;;2090154;28;20032;-48
2024/03/03 05:41:26;;;;;;;0.73;0.32;;;;;;;;;;2089759;28;20399;-48
2024/03/03 05:42:28;;;;;;;0.80;0.20;;;;;;;;;;2089911;28;20049;-49
2024/03/03 05:43:29;;;;;;;0.10;0.10;;;;;;;;;;2089472;28;20028;-48
2024/03/03 05:44:30;;;;;;;0.70;0.20;;;;;;;;;;2088512;28;20373;-48
2024/03/03 05:45:31;;;;;;;2.80;0.20;;;;;;;;;;2089809;28;20017;-48
2024/03/03 05:46:34;;;;;;;0.43;0.10;;;;;;;;;;2089788;28;20103;-48
2024/03/03 05:47:35;;;;;;;0.50;0.20;;;;;;;;;;2089725;28;20024;-48
2024/03/03 05:48:37;;;;;;;0.38;0.10;;;;;;;;;;2090020;28;20067;-47
2024/03/03 05:49:40;;;;;;;0.73;0.10;;;;;;;;;;2089128;28;20446;-48
2024/03/03 05:50:41;;;;;;;0.63;0.10;;;;;;;;;;2086699;28;20036;-50
2024/03/03 05:51:42;;;;;;;0.35;0.10;;;;;;;;;;2081501;28;20060;-48
2024/03/03 05:52:43;;;;;;;0.30;0.10;;;;;;;;;;2089934;28;20514;-47
2024/03/03 05:53:45;;;;;;;0.22;0.13;;;;;;;;;;2090946;28;20060;-47
2024/03/03 05:54:47;;;;;;;2.47;0.20;;;;;;;;;;2091559;28;20468;-48
2024/03/03 05:55:48;;;;;;;0.88;0.17;;;;;;;;;;2089041;28;20112;-47
2024/03/03 05:56:49;;;;;;;0.30;0.10;;;;;;;;;;2089271;28;20501;-47
2024/03/03 05:57:50;;;;;;;1.25;0.73;;;;;;;;;;2087786;28;20021;-51
2024/03/03 05:58:54;;;;;;;0.57;0.20;;;;;;;;;;2088965;28;20511;-52
2024/03/03 05:59:56;;;;;;;0.63;0.15;;;;;;;;;;2081582;28;20029;-53
2024/03/03 06:00:57;;;;;;;0.30;0.15;;;;;;;;;;2088519;28;20534;-52
2024/03/03 06:01:59;;;;;;;0.82;0.38;;;;;;;;;;2091156;28;20025;-51
2024/03/03 06:03:01;;;;;;;0.63;0.28;;;;;;;;;;2097000;28;20430;-51
2024/03/03 06:04:02;;;;;;;0.55;0.20;;;;;;;;;;2080952;28;20025;-50
2024/03/03 06:05:04;;;;;;;0.45;0.20;;;;;;;;;;2085705;28;20017;-52
2024/03/03 06:06:06;;;;;;;2.17;0.30;;;;;;;;;;2087183;28;20075;-51
2024/03/03 06:07:08;;;;;;;0.70;0.20;;;;;;;;;;2088414;28;20021;-50
2024/03/03 06:08:09;;;;;;;0.30;0.10;;;;;;;;;;2089225;28;20517;-53
2024/03/03 06:09:12;;;;;;;0.63;0.25;;;;;;;;;;2089863;28;20108;-48